Quiberon — FNQY — position and weather

sailwx.info

Track history (hours):
 
Tides and Currents Weather Stations Pressure Air Temp Water Temp Dewpoint Dewpoint Depression Visibility Wind Speed Wind Dir Waves Ship Positions

Quiberon

Operator: Brittany Ferries

Last reported at 2019-Sep-17 06:33 UTC. Time now 2019-Sep-21 11:33 UTC.
Position N 45°00' W 000°34'.

Length 25 m; draft 4.8 m.

Type: Tug. MMSI: 228296800.

Date/timePositionNaut miles runAvg speedWind from/ knotsBaromVisibWave heightAir tempDewpointWater temp
2019-Sep-17 06:33N 45°00' W 000°34'0 0.0
2019-Sep-17 04:30N 45°00' W 000°34'0 0.0
2019-Sep-17 04:00N 45°00' W 000°34'0 0.0
2019-Sep-17 03:30N 45°00' W 000°34'0 0.0
2019-Sep-17 03:00N 45°00' W 000°34'0 0.0
2019-Sep-17 02:30N 45°00' W 000°34'0 0.0
2019-Sep-17 02:00N 45°00' W 000°34'0 0.0
2019-Sep-17 01:30N 45°00' W 000°34'0 0.0
2019-Sep-17 01:01N 45°00' W 000°34'0 0.0
2019-Sep-17 00:31N 45°00' W 000°34'0 0.0
2019-Sep-17 00:00N 45°00' W 000°34'0 0.0
2019-Sep-16 23:30N 45°00' W 000°34'0 0.0
2019-Sep-16 23:01N 45°00' W 000°34'0 0.0
2019-Sep-16 22:31N 45°00' W 000°34'0 0.0
2019-Sep-16 22:00N 45°00' W 000°34'0 0.0
2019-Sep-16 21:31N 45°00' W 000°34'0 0.0
2019-Sep-16 21:01N 45°00' W 000°34'0 0.0
2019-Sep-16 20:31N 45°00' W 000°34'0 0.0
2019-Sep-16 20:01N 45°00' W 000°34'0 0.5
2019-Sep-16 19:31N 44°60' W 000°33'0 0.9
2019-Sep-16 19:00N 44°60' W 000°33'6 0.5
2019-Sep-16 06:44N 44°53' W 000°32'2 8.3
2019-Sep-16 06:26N 44°56' W 000°33'4 8.3
2019-Sep-16 06:00N 44°59' W 000°33'1 1.5
2019-Sep-16 05:30N 44°60' W 000°33'1 1.4
2019-Sep-16 05:00N 45°00' W 000°34'0 0.7
2019-Sep-16 04:31N 45°00' W 000°34'0 0.0
2019-Sep-16 04:01N 45°00' W 000°34'0 0.0
2019-Sep-16 03:31N 45°00' W 000°34'0 0.0
2019-Sep-16 03:01N 45°00' W 000°34'0 0.0
2019-Sep-16 02:31N 45°00' W 000°34'0 0.0
2019-Sep-16 02:01N 45°00' W 000°34'0 0.0
2019-Sep-16 01:30N 45°00' W 000°34'0 0.0
2019-Sep-16 01:00N 45°00' W 000°34'0 0.0
2019-Sep-16 00:26N 45°00' W 000°34'0 0.0
2019-Sep-16 00:01N 45°00' W 000°34'0 0.0
2019-Sep-15 23:29N 45°00' W 000°34'0 0.0
2019-Sep-15 23:00N 45°00' W 000°34'0 0.0
2019-Sep-15 22:30N 45°00' W 000°34'0 0.0
2019-Sep-15 22:01N 45°00' W 000°34'0 0.0
2019-Sep-15 21:30N 45°00' W 000°34'0 0.0
2019-Sep-15 21:00N 45°00' W 000°34'0 0.0
2019-Sep-15 20:31N 45°00' W 000°34'0 0.1
2019-Sep-15 20:00N 45°00' W 000°34'0 0.3
2019-Sep-15 19:31N 45°00' W 000°34'7 0.5
2019-Sep-15 04:51N 44°53' W 000°32'0 0.0
2019-Sep-14 23:07N 44°53' W 000°32'0 0.0
2019-Sep-14 23:00N 44°53' W 000°32'0 0.0
2019-Sep-14 08:42N 44°53' W 000°32'0 0.0
2019-Sep-14 08:11N 44°53' W 000°32'0 0.0
2019-Sep-14 08:00N 44°53' W 000°32'0 0.0
2019-Sep-14 07:31N 44°53' W 000°32'0 0.0
2019-Sep-14 07:00N 44°53' W 000°32'0 0.0
2019-Sep-14 06:29N 44°53' W 000°32'0 0.0
2019-Sep-14 06:00N 44°53' W 000°32'0 0.0
2019-Sep-14 05:29N 44°53' W 000°32'0 0.0
2019-Sep-14 05:00N 44°53' W 000°32'0 0.0
2019-Sep-14 04:31N 44°53' W 000°32'0 0.0
2019-Sep-14 04:00N 44°53' W 000°32'0 0.0
2019-Sep-14 03:30N 44°53' W 000°32'0 0.0
2019-Sep-14 02:53N 44°53' W 000°32'0 0.0
2019-Sep-14 02:09N 44°53' W 000°32'0 0.0
2019-Sep-14 01:58N 44°53' W 000°32'0 0.0
2019-Sep-14 01:15N 44°53' W 000°32'0 0.0
2019-Sep-14 00:58N 44°53' W 000°32'0 0.0
2019-Sep-14 00:27N 44°53' W 000°32'0 0.0
2019-Sep-13 23:59N 44°53' W 000°32'0 0.0
2019-Sep-13 23:18N 44°53' W 000°32'0 0.0
2019-Sep-13 22:11N 44°53' W 000°32'0 0.0
2019-Sep-13 21:58N 44°53' W 000°32'0 0.1
2019-Sep-13 19:24N 44°54' W 000°32'0 0.0
2019-Sep-13 07:46N 44°53' W 000°32'0 0.0
2019-Sep-13 07:26N 44°53' W 000°32'0 0.0
2019-Sep-13 07:00N 44°53' W 000°32'0 0.0
2019-Sep-13 06:26N 44°53' W 000°32'0 0.0
2019-Sep-13 03:32N 44°53' W 000°32'0 5.3
2019-Sep-13 03:31N 44°53' W 000°32'612.3
2019-Sep-13 02:59N 44°60' W 000°33'0 0.2
2019-Sep-13 02:30N 44°60' W 000°33'1 0.7
2019-Sep-13 01:30N 44°59' W 000°33'5 7.7
2019-Sep-13 00:49N 44°54' W 000°32'1 0.3
2019-Sep-12 22:24N 44°53' W 000°32'0 0.0
2019-Sep-12 21:50N 44°53' W 000°32'0 0.0
2019-Sep-12 21:30N 44°53' W 000°32'0 0.0
2019-Sep-12 09:22N 44°53' W 000°32'0 0.0
2019-Sep-12 08:52N 44°53' W 000°32'0 0.0
2019-Sep-12 08:25N 44°53' W 000°32'0 0.0
2019-Sep-12 07:59N 44°53' W 000°32'0 0.0
2019-Sep-12 07:31N 44°53' W 000°32'0 0.0
2019-Sep-12 06:43N 44°53' W 000°32'0 0.0
2019-Sep-12 06:28N 44°53' W 000°32'0 0.0
2019-Sep-12 06:00N 44°53' W 000°32'0 0.0
2019-Sep-12 05:30N 44°53' W 000°32'0 0.0
2019-Sep-12 04:46N 44°53' W 000°32'0 0.0
2019-Sep-12 04:30N 44°53' W 000°32'0 0.0
2019-Sep-12 03:56N 44°53' W 000°32'2 3.7
2019-Sep-12 03:29N 44°55' W 000°33'511.3
2019-Sep-12 03:01N 45°00' W 000°34'0 0.0
2019-Sep-12 02:30N 45°00' W 000°34'0 0.5
2019-Sep-12 01:58N 45°00' W 000°34'0 0.8
2019-Sep-12 01:30N 45°00' W 000°34'0 0.0
2019-Sep-12 01:00N 45°00' W 000°34'0 0.0
2019-Sep-12 00:30N 45°00' W 000°34'0 0.0
2019-Sep-12 00:00N 45°00' W 000°34'0 0.0
2019-Sep-11 23:30N 45°00' W 000°34'0 0.0
2019-Sep-11 23:01N 45°00' W 000°34'0 0.0
2019-Sep-11 22:30N 45°00' W 000°34'0 0.0
2019-Sep-11 22:00N 45°00' W 000°34'0 0.0
2019-Sep-11 21:31N 45°00' W 000°34'0 0.0
2019-Sep-11 21:00N 45°00' W 000°34'0 0.0
2019-Sep-11 20:30N 45°00' W 000°34'0 0.0
2019-Sep-11 20:00N 45°00' W 000°34'0 0.0
2019-Sep-11 19:30N 45°00' W 000°34'7 0.6
2019-Sep-11 07:11N 44°53' W 000°32'0 0.0
2019-Sep-11 06:39N 44°53' W 000°32'0 0.0
2019-Sep-11 06:28N 44°53' W 000°32'0 0.4
2019-Sep-11 05:57N 44°53' W 000°32'2 2.2
2019-Sep-11 05:02N 44°51' W 000°34'0 5.6
2019-Sep-11 04:59N 44°51' W 000°33'5 9.1
2019-Sep-11 04:27N 44°56' W 000°33'4 9.1
2019-Sep-11 04:00N 45°00' W 000°34'0 0.0
2019-Sep-11 03:30N 45°00' W 000°34'0 0.4
2019-Sep-11 03:00N 45°00' W 000°34'1 1.9
2019-Sep-11 02:29N 45°01' W 000°35'1 1.8
2019-Sep-11 01:49N 45°00' W 000°34'0 0.1
2019-Sep-11 01:28N 45°00' W 000°34'0 0.0
2019-Sep-11 01:00N 45°00' W 000°34'0 0.0
2019-Sep-11 00:31N 45°00' W 000°34'0 0.0
2019-Sep-10 23:53N 45°00' W 000°34'0 0.0
2019-Sep-10 23:30N 45°00' W 000°34'0 0.0
2019-Sep-10 23:00N 45°00' W 000°34'0 0.0
2019-Sep-10 22:30N 45°00' W 000°34'0 0.0
2019-Sep-10 22:00N 45°00' W 000°34'4 7.3
2019-Sep-10 21:31N 44°57' W 000°33'  
Track history (hours):
 
Tides and Currents Weather Stations Pressure Air Temp Water Temp Dewpoint Dewpoint Depression Visibility Wind Speed Wind Dir Waves Ship Positions

Quiberon

Operator: Brittany Ferries

Last reported at 2019-Sep-17 06:33 UTC. Time now 2019-Sep-21 11:33 UTC.
Position N 45°00' W 000°34'.

Length 25 m; draft 4.8 m.

Type: Tug. MMSI: 228296800.

Date/timePositionNaut miles runAvg speedWind from/ knotsBaromVisibWave heightAir tempDewpointWater temp
2019-Sep-17 06:33N 45°00' W 000°34'0 0.0
2019-Sep-17 04:30N 45°00' W 000°34'0 0.0
2019-Sep-17 04:00N 45°00' W 000°34'0 0.0
2019-Sep-17 03:30N 45°00' W 000°34'0 0.0
2019-Sep-17 03:00N 45°00' W 000°34'0 0.0
2019-Sep-17 02:30N 45°00' W 000°34'0 0.0
2019-Sep-17 02:00N 45°00' W 000°34'0 0.0
2019-Sep-17 01:30N 45°00' W 000°34'0 0.0
2019-Sep-17 01:01N 45°00' W 000°34'0 0.0
2019-Sep-17 00:31N 45°00' W 000°34'0 0.0
2019-Sep-17 00:00N 45°00' W 000°34'0 0.0
2019-Sep-16 23:30N 45°00' W 000°34'0 0.0
2019-Sep-16 23:01N 45°00' W 000°34'0 0.0
2019-Sep-16 22:31N 45°00' W 000°34'0 0.0
2019-Sep-16 22:00N 45°00' W 000°34'0 0.0
2019-Sep-16 21:31N 45°00' W 000°34'0 0.0
2019-Sep-16 21:01N 45°00' W 000°34'0 0.0
2019-Sep-16 20:31N 45°00' W 000°34'0 0.0
2019-Sep-16 20:01N 45°00' W 000°34'0 0.5
2019-Sep-16 19:31N 44°60' W 000°33'0 0.9
2019-Sep-16 19:00N 44°60' W 000°33'6 0.5
2019-Sep-16 06:44N 44°53' W 000°32'2 8.3
2019-Sep-16 06:26N 44°56' W 000°33'4 8.3
2019-Sep-16 06:00N 44°59' W 000°33'1 1.5
2019-Sep-16 05:30N 44°60' W 000°33'1 1.4
2019-Sep-16 05:00N 45°00' W 000°34'0 0.7
2019-Sep-16 04:31N 45°00' W 000°34'0 0.0
2019-Sep-16 04:01N 45°00' W 000°34'0 0.0
2019-Sep-16 03:31N 45°00' W 000°34'0 0.0
2019-Sep-16 03:01N 45°00' W 000°34'0 0.0
2019-Sep-16 02:31N 45°00' W 000°34'0 0.0
2019-Sep-16 02:01N 45°00' W 000°34'0 0.0
2019-Sep-16 01:30N 45°00' W 000°34'0 0.0
2019-Sep-16 01:00N 45°00' W 000°34'0 0.0
2019-Sep-16 00:26N 45°00' W 000°34'0 0.0
2019-Sep-16 00:01N 45°00' W 000°34'0 0.0
2019-Sep-15 23:29N 45°00' W 000°34'0 0.0
2019-Sep-15 23:00N 45°00' W 000°34'0 0.0
2019-Sep-15 22:30N 45°00' W 000°34'0 0.0
2019-Sep-15 22:01N 45°00' W 000°34'0 0.0
2019-Sep-15 21:30N 45°00' W 000°34'0 0.0
2019-Sep-15 21:00N 45°00' W 000°34'0 0.0
2019-Sep-15 20:31N 45°00' W 000°34'0 0.1
2019-Sep-15 20:00N 45°00' W 000°34'0 0.3
2019-Sep-15 19:31N 45°00' W 000°34'7 0.5
2019-Sep-15 04:51N 44°53' W 000°32'0 0.0
2019-Sep-14 23:07N 44°53' W 000°32'0 0.0
2019-Sep-14 23:00N 44°53' W 000°32'0 0.0
2019-Sep-14 08:42N 44°53' W 000°32'0 0.0
2019-Sep-14 08:11N 44°53' W 000°32'0 0.0
2019-Sep-14 08:00N 44°53' W 000°32'0 0.0
2019-Sep-14 07:31N 44°53' W 000°32'0 0.0
2019-Sep-14 07:00N 44°53' W 000°32'0 0.0
2019-Sep-14 06:29N 44°53' W 000°32'0 0.0
2019-Sep-14 06:00N 44°53' W 000°32'0 0.0
2019-Sep-14 05:29N 44°53' W 000°32'0 0.0
2019-Sep-14 05:00N 44°53' W 000°32'0 0.0
2019-Sep-14 04:31N 44°53' W 000°32'0 0.0
2019-Sep-14 04:00N 44°53' W 000°32'0 0.0
2019-Sep-14 03:30N 44°53' W 000°32'0 0.0
2019-Sep-14 02:53N 44°53' W 000°32'0 0.0
2019-Sep-14 02:09N 44°53' W 000°32'0 0.0
2019-Sep-14 01:58N 44°53' W 000°32'0 0.0
2019-Sep-14 01:15N 44°53' W 000°32'0 0.0
2019-Sep-14 00:58N 44°53' W 000°32'0 0.0
2019-Sep-14 00:27N 44°53' W 000°32'0 0.0
2019-Sep-13 23:59N 44°53' W 000°32'0 0.0
2019-Sep-13 23:18N 44°53' W 000°32'0 0.0
2019-Sep-13 22:11N 44°53' W 000°32'0 0.0
2019-Sep-13 21:58N 44°53' W 000°32'0 0.1
2019-Sep-13 19:24N 44°54' W 000°32'0 0.0
2019-Sep-13 07:46N 44°53' W 000°32'0 0.0
2019-Sep-13 07:26N 44°53' W 000°32'0 0.0
2019-Sep-13 07:00N 44°53' W 000°32'0 0.0
2019-Sep-13 06:26N 44°53' W 000°32'0 0.0
2019-Sep-13 03:32N 44°53' W 000°32'0 5.3
2019-Sep-13 03:31N 44°53' W 000°32'612.3
2019-Sep-13 02:59N 44°60' W 000°33'0 0.2
2019-Sep-13 02:30N 44°60' W 000°33'1 0.7
2019-Sep-13 01:30N 44°59' W 000°33'5 7.7
2019-Sep-13 00:49N 44°54' W 000°32'1 0.3
2019-Sep-12 22:24N 44°53' W 000°32'0 0.0
2019-Sep-12 21:50N 44°53' W 000°32'0 0.0
2019-Sep-12 21:30N 44°53' W 000°32'0 0.0
2019-Sep-12 09:22N 44°53' W 000°32'0 0.0
2019-Sep-12 08:52N 44°53' W 000°32'0 0.0
2019-Sep-12 08:25N 44°53' W 000°32'0 0.0
2019-Sep-12 07:59N 44°53' W 000°32'0 0.0
2019-Sep-12 07:31N 44°53' W 000°32'0 0.0
2019-Sep-12 06:43N 44°53' W 000°32'0 0.0
2019-Sep-12 06:28N 44°53' W 000°32'0 0.0
2019-Sep-12 06:00N 44°53' W 000°32'0 0.0
2019-Sep-12 05:30N 44°53' W 000°32'0 0.0
2019-Sep-12 04:46N 44°53' W 000°32'0 0.0
2019-Sep-12 04:30N 44°53' W 000°32'0 0.0
2019-Sep-12 03:56N 44°53' W 000°32'2 3.7
2019-Sep-12 03:29N 44°55' W 000°33'511.3
2019-Sep-12 03:01N 45°00' W 000°34'0 0.0
2019-Sep-12 02:30N 45°00' W 000°34'0 0.5
2019-Sep-12 01:58N 45°00' W 000°34'0 0.8
2019-Sep-12 01:30N 45°00' W 000°34'0 0.0
2019-Sep-12 01:00N 45°00' W 000°34'0 0.0
2019-Sep-12 00:30N 45°00' W 000°34'0 0.0
2019-Sep-12 00:00N 45°00' W 000°34'0 0.0
2019-Sep-11 23:30N 45°00' W 000°34'0 0.0
2019-Sep-11 23:01N 45°00' W 000°34'0 0.0
2019-Sep-11 22:30N 45°00' W 000°34'0 0.0
2019-Sep-11 22:00N 45°00' W 000°34'0 0.0
2019-Sep-11 21:31N 45°00' W 000°34'0 0.0
2019-Sep-11 21:00N 45°00' W 000°34'0 0.0
2019-Sep-11 20:30N 45°00' W 000°34'0 0.0
2019-Sep-11 20:00N 45°00' W 000°34'0 0.0
2019-Sep-11 19:30N 45°00' W 000°34'7 0.6
2019-Sep-11 07:11N 44°53' W 000°32'0 0.0
2019-Sep-11 06:39N 44°53' W 000°32'0 0.0
2019-Sep-11 06:28N 44°53' W 000°32'0 0.4
2019-Sep-11 05:57N 44°53' W 000°32'2 2.2
2019-Sep-11 05:02N 44°51' W 000°34'0 5.6
2019-Sep-11 04:59N 44°51' W 000°33'5 9.1
2019-Sep-11 04:27N 44°56' W 000°33'4 9.1
2019-Sep-11 04:00N 45°00' W 000°34'0 0.0
2019-Sep-11 03:30N 45°00' W 000°34'0 0.4
2019-Sep-11 03:00N 45°00' W 000°34'1 1.9
2019-Sep-11 02:29N 45°01' W 000°35'1 1.8
2019-Sep-11 01:49N 45°00' W 000°34'0 0.1
2019-Sep-11 01:28N 45°00' W 000°34'0 0.0
2019-Sep-11 01:00N 45°00' W 000°34'0 0.0
2019-Sep-11 00:31N 45°00' W 000°34'0 0.0
2019-Sep-10 23:53N 45°00' W 000°34'0 0.0
2019-Sep-10 23:30N 45°00' W 000°34'0 0.0
2019-Sep-10 23:00N 45°00' W 000°34'0 0.0
2019-Sep-10 22:30N 45°00' W 000°34'0 0.0
2019-Sep-10 22:00N 45°00' W 000°34'4 7.3
2019-Sep-10 21:31N 44°57' W 000°33'  

Dump ship's entire track history